Wetterdaten: Woche 26.12.11 - 01.01.12 (KW52)
Datum Zeit Temperatur Luftfeuchte Luftdruck Niederschlag Windrichtung Sonnenschein Solar Wind
26.12.2011 00:00 1,6 C 87 % 1038,9 hPa 0,2 l/m S-SW 0,00 h 0 W/m 4,4 km/h (1 Bft)
26.12.2011 01:00 1,0 C 87 % 1038,7 hPa 0,0 l/m S-SW 0,00 h 0 W/m 3,5 km/h (1 Bft)
26.12.2011 02:00 0,7 C 87 % 1039,0 hPa 0,0 l/m S-SW 0,00 h 0 W/m 3,5 km/h (1 Bft)
26.12.2011 03:00 0,7 C 87 % 1039,1 hPa 0,0 l/m N 0,00 h 0 W/m 0,1 km/h (0 Bft)
26.12.2011 04:00 0,0 C 87 % 1038,9 hPa 0,0 l/m N 0,00 h 0 W/m 0,3 km/h (0 Bft)
26.12.2011 05:00 -0,8 C 89 % 1038,9 hPa 0,0 l/m N 0,00 h 0 W/m 0,0 km/h (0 Bft)
26.12.2011 06:00 -1,3 C 91 % 1039,1 hPa 0,0 l/m N 0,00 h 0 W/m 0,3 km/h (0 Bft)
26.12.2011 07:00 -1,7 C 92 % 1039,2 hPa 0,0 l/m N 0,00 h 0 W/m 0,5 km/h (0 Bft)
26.12.2011 08:00 -2,1 C 93 % 1039,4 hPa 0,0 l/m N 0,00 h 11 W/m 0,1 km/h (0 Bft)
26.12.2011 09:00 -1,9 C 94 % 1039,5 hPa 0,0 l/m N 0,00 h 34 W/m 1,2 km/h (1 Bft)
26.12.2011 10:00 -0,4 C 95 % 1039,7 hPa 0,0 l/m S-SW 0,92 h 170 W/m 4,7 km/h (1 Bft)
26.12.2011 11:00 2,8 C 81 % 1039,5 hPa 0,0 l/m S-SW 0,92 h 270 W/m 5,5 km/h (1 Bft)
26.12.2011 12:00 4,5 C 72 % 1039,2 hPa 0,0 l/m S-SW 1,00 h 298 W/m 4,4 km/h (1 Bft)
26.12.2011 13:00 6,0 C 72 % 1038,6 hPa 0,0 l/m SW 1,00 h 265 W/m 5,1 km/h (1 Bft)
26.12.2011 14:00 6,8 C 72 % 1038,4 hPa 0,0 l/m O 1,00 h 180 W/m 4,3 km/h (1 Bft)
26.12.2011 15:00 6,7 C 73 % 1038,3 hPa 0,0 l/m O 0,42 h 64 W/m 3,7 km/h (1 Bft)
26.12.2011 16:00 5,4 C 77 % 1038,4 hPa 0,0 l/m N 0,08 h 10 W/m 0,1 km/h (0 Bft)
26.12.2011 17:00 3,2 C 82 % 1038,2 hPa 0,0 l/m O-SO 0,00 h 0 W/m 1,1 km/h (0 Bft)
26.12.2011 18:00 1,6 C 86 % 1038,3 hPa 0,0 l/m N 0,00 h 0 W/m 0,8 km/h (0 Bft)
26.12.2011 19:00 0,7 C 89 % 1038,3 hPa 0,0 l/m O 0,00 h 0 W/m 2,1 km/h (1 Bft)
26.12.2011 20:00 0,2 C 92 % 1038,3 hPa 0,0 l/m N 0,00 h 0 W/m 0,9 km/h (0 Bft)
26.12.2011 21:00 0,1 C 94 % 1038,3 hPa 0,0 l/m O 0,00 h 0 W/m 2,8 km/h (1 Bft)
26.12.2011 22:00 0,2 C 95 % 1037,9 hPa 0,0 l/m O 0,00 h 0 W/m 2,7 km/h (1 Bft)
26.12.2011 23:00 0,0 C 94 % 1037,8 hPa 0,0 l/m N 0,00 h 0 W/m 0,4 km/h (0 Bft)
27.12.2011 00:00 -0,4 C 94 % 1037,6 hPa 0,0 l/m O 0,00 h 0 W/m 3,2 km/h (1 Bft)
27.12.2011 01:00 -0,4 C 95 % 1037,2 hPa 0,0 l/m N 0,00 h 0 W/m 1,3 km/h (1 Bft)
27.12.2011 02:00 -0,6 C 95 % 1037,3 hPa 0,0 l/m N 0,00 h 0 W/m 2,9 km/h (1 Bft)
27.12.2011 03:00 -0,7 C 96 % 1037,1 hPa 0,0 l/m N 0,00 h 0 W/m 1,5 km/h (1 Bft)
27.12.2011 04:00 -0,9 C 96 % 1036,7 hPa 0,0 l/m O 0,00 h 0 W/m 2,7 km/h (1 Bft)
27.12.2011 05:00 -1,0 C 96 % 1036,4 hPa 0,0 l/m N 0,00 h 0 W/m 0,0 km/h (0 Bft)
27.12.2011 06:00 -1,6 C 96 % 1036,8 hPa 0,0 l/m N 0,00 h 0 W/m 0,1 km/h (0 Bft)
27.12.2011 07:00 -1,7 C 96 % 1036,9 hPa 0,0 l/m N 0,00 h 0 W/m 0,4 km/h (0 Bft)
27.12.2011 08:00 -1,0 C 97 % 1037,1 hPa 0,0 l/m O 0,00 h 17 W/m 1,7 km/h (1 Bft)
27.12.2011 09:00 0,6 C 98 % 1037,3 hPa 0,0 l/m O 0,00 h 38 W/m 5,3 km/h (1 Bft)
27.12.2011 10:00 1,8 C 98 % 1037,5 hPa 0,0 l/m O 0,92 h 179 W/m 3,6 km/h (1 Bft)
27.12.2011 11:00 3,7 C 94 % 1037,1 hPa 0,0 l/m O 1,00 h 284 W/m 4,2 km/h (1 Bft)
27.12.2011 12:00 6,4 C 80 % 1036,0 hPa 0,0 l/m O-NO 1,00 h 315 W/m 6,4 km/h (2 Bft)
27.12.2011 13:00 7,6 C 76 % 1035,3 hPa 0,0 l/m O-NO 1,00 h 285 W/m 8,3 km/h (2 Bft)
27.12.2011 14:00 8,0 C 75 % 1035,0 hPa 0,0 l/m O 1,00 h 199 W/m 9,4 km/h (2 Bft)
27.12.2011 15:00 7,7 C 76 % 1035,0 hPa 0,0 l/m O-NO 0,42 h 69 W/m 7,8 km/h (2 Bft)
27.12.2011 16:00 6,5 C 78 % 1035,0 hPa 0,0 l/m O-NO 0,08 h 11 W/m 2,3 km/h (1 Bft)
27.12.2011 17:00 3,6 C 81 % 1035,5 hPa 0,0 l/m O-NO 0,00 h 0 W/m 3,1 km/h (1 Bft)
27.12.2011 18:00 -0,1 C 88 % 1035,8 hPa 0,0 l/m O-NO 0,00 h 0 W/m 4,3 km/h (1 Bft)
27.12.2011 19:00 -1,1 C 93 % 1036,0 hPa 0,0 l/m O 0,00 h 0 W/m 4,5 km/h (1 Bft)
27.12.2011 20:00 -1,2 C 95 % 1035,7 hPa 0,0 l/m O 0,00 h 0 W/m 4,3 km/h (1 Bft)
27.12.2011 21:00 -1,3 C 96 % 1035,3 hPa 0,0 l/m O 0,00 h 0 W/m 6,3 km/h (2 Bft)
27.12.2011 22:00 -1,2 C 96 % 1035,0 hPa 0,0 l/m O-SO 0,00 h 0 W/m 6,8 km/h (2 Bft)
27.12.2011 23:00 -1,2 C 97 % 1034,8 hPa 0,0 l/m SO 0,00 h 0 W/m 5,5 km/h (1 Bft)
28.12.2011 00:00 -1,0 C 97 % 1034,5 hPa 0,0 l/m S-SO 0,00 h 0 W/m 4,1 km/h (1 Bft)
28.12.2011 01:00 -0,8 C 98 % 1034,3 hPa 0,0 l/m S-SO 0,00 h 0 W/m 3,7 km/h (1 Bft)
28.12.2011 02:00 -0,8 C 98 % 1034,0 hPa 0,0 l/m S 0,00 h 0 W/m 4,7 km/h (1 Bft)
28.12.2011 03:00 -0,8 C 98 % 1033,9 hPa 0,0 l/m S-SW 0,00 h 0 W/m 6,5 km/h (2 Bft)
28.12.2011 04:00 -0,7 C 98 % 1033,3 hPa 0,0 l/m W-SW 0,00 h 0 W/m 5,6 km/h (1 Bft)
28.12.2011 05:00 -0,8 C 98 % 1032,6 hPa 0,0 l/m SW 0,00 h 0 W/m 5,6 km/h (1 Bft)
28.12.2011 06:00 -0,9 C 99 % 1032,3 hPa 0,0 l/m SW 0,00 h 0 W/m 7,5 km/h (2 Bft)
28.12.2011 07:00 -1,1 C 98 % 1031,9 hPa 0,0 l/m SW 0,00 h 0 W/m 10,7 km/h (2 Bft)
28.12.2011 08:00 -1,2 C 98 % 1031,5 hPa 0,0 l/m W-SW 0,00 h 11 W/m 8,7 km/h (2 Bft)
28.12.2011 09:00 -0,8 C 99 % 1030,9 hPa 0,0 l/m SW 0,00 h 28 W/m 8,6 km/h (2 Bft)
28.12.2011 10:00 -0,6 C 99 % 1030,1 hPa 0,2 l/m S-SW 0,00 h 61 W/m 11,6 km/h (2 Bft)
28.12.2011 11:00 -0,2 C 99 % 1029,2 hPa 0,0 l/m S-SW 0,00 h 97 W/m 7,6 km/h (2 Bft)
28.12.2011 12:00 0,1 C 99 % 1028,2 hPa 0,0 l/m S-SW 0,00 h 87 W/m 9,4 km/h (2 Bft)
28.12.2011 13:00 0,1 C 99 % 1027,8 hPa 0,0 l/m S-SW 0,00 h 73 W/m 11,7 km/h (2 Bft)
28.12.2011 14:00 0,2 C 99 % 1027,6 hPa 0,0 l/m SW 0,00 h 68 W/m 16,6 km/h (3 Bft)
28.12.2011 15:00 -0,1 C 99 % 1027,5 hPa 0,0 l/m SW 0,00 h 38 W/m 13,2 km/h (3 Bft)
28.12.2011 16:00 -0,5 C 99 % 1027,0 hPa 0,0 l/m S-SW 0,00 h 9 W/m 11,4 km/h (2 Bft)
28.12.2011 17:00 -0,9 C 98 % 1026,6 hPa 0,0 l/m S-SO 0,00 h 0 W/m 9,1 km/h (2 Bft)
28.12.2011 18:00 -1,1 C 98 % 1026,5 hPa 0,0 l/m N 0,00 h 0 W/m 2,1 km/h (1 Bft)
28.12.2011 19:00 -1,3 C 98 % 1026,1 hPa 0,0 l/m S-SO 0,00 h 0 W/m 3,6 km/h (1 Bft)
28.12.2011 20:00 -1,5 C 98 % 1025,6 hPa 0,0 l/m N 0,00 h 0 W/m 0,5 km/h (0 Bft)
28.12.2011 21:00 -1,4 C 98 % 1025,3 hPa 0,0 l/m N 0,00 h 0 W/m 0,0 km/h (0 Bft)
28.12.2011 22:00 -1,5 C 98 % 1025,3 hPa 0,0 l/m N 0,00 h 0 W/m 0,0 km/h (0 Bft)
28.12.2011 23:00 -1,7 C 98 % 1026,0 hPa 0,0 l/m N 0,00 h 0 W/m 0,0 km/h (0 Bft)
29.12.2011 00:00 -1,8 C 98 % 1026,3 hPa 0,0 l/m S-SW 0,00 h 0 W/m 5,8 km/h (2 Bft)
29.12.2011 01:00 -0,3 C 99 % 1026,5 hPa 0,0 l/m SW 0,00 h 0 W/m 16,2 km/h (3 Bft)
29.12.2011 02:00 0,1 C 99 % 1026,5 hPa 0,0 l/m SW 0,00 h 0 W/m 11,4 km/h (2 Bft)
29.12.2011 03:00 0,9 C 99 % 1026,8 hPa 0,2 l/m SW 0,00 h 0 W/m 15,8 km/h (3 Bft)
29.12.2011 04:00 2,0 C 98 % 1026,3 hPa 0,0 l/m W-SW 0,00 h 0 W/m 19,6 km/h (3 Bft)
29.12.2011 05:00 2,2 C 97 % 1026,2 hPa 0,0 l/m W-SW 0,00 h 0 W/m 13,4 km/h (3 Bft)
29.12.2011 06:00 2,2 C 96 % 1026,2 hPa 0,0 l/m W-SW 0,00 h 0 W/m 8,7 km/h (2 Bft)
29.12.2011 07:00 2,0 C 96 % 1026,4 hPa 0,0 l/m SO 0,00 h 0 W/m 3,9 km/h (1 Bft)
29.12.2011 08:00 1,4 C 96 % 1026,9 hPa 0,0 l/m S-SW 0,00 h 10 W/m 4,0 km/h (1 Bft)
29.12.2011 09:00 1,1 C 96 % 1027,2 hPa 0,0 l/m SW 0,00 h 32 W/m 5,2 km/h (1 Bft)
29.12.2011 10:00 2,0 C 93 % 1027,4 hPa 0,0 l/m W 0,75 h 163 W/m 15,8 km/h (3 Bft)
29.12.2011 11:00 3,5 C 77 % 1027,3 hPa 0,0 l/m W 0,25 h 134 W/m 18,8 km/h (3 Bft)
29.12.2011 12:00 3,5 C 77 % 1026,3 hPa 0,0 l/m W 0,00 h 66 W/m 12,7 km/h (3 Bft)
29.12.2011 13:00 3,3 C 77 % 1025,7 hPa 0,0 l/m W 0,00 h 54 W/m 17,7 km/h (3 Bft)
29.12.2011 14:00 3,2 C 81 % 1025,4 hPa 0,0 l/m W-SW 0,00 h 71 W/m 22,5 km/h (4 Bft)
29.12.2011 15:00 3,1 C 82 % 1025,4 hPa 0,0 l/m W-SW 0,17 h 37 W/m 22,0 km/h (4 Bft)
29.12.2011 16:00 2,6 C 82 % 1024,7 hPa 0,0 l/m SW 0,00 h 13 W/m 23,9 km/h (4 Bft)
29.12.2011 17:00 2,3 C 82 % 1024,8 hPa 0,0 l/m W-SW 0,00 h 0 W/m 26,0 km/h (4 Bft)
29.12.2011 18:00 1,9 C 83 % 1024,5 hPa 0,0 l/m W-SW 0,00 h 0 W/m 26,4 km/h (4 Bft)
29.12.2011 19:00 1,9 C 81 % 1023,9 hPa 0,0 l/m SW 0,00 h 0 W/m 26,0 km/h (4 Bft)
29.12.2011 20:00 2,0 C 80 % 1023,0 hPa 0,0 l/m W-SW 0,00 h 0 W/m 29,0 km/h (5 Bft)
29.12.2011 21:00 2,0 C 79 % 1021,6 hPa 0,0 l/m SW 0,00 h 0 W/m 28,6 km/h (4 Bft)
29.12.2011 22:00 1,8 C 79 % 1020,1 hPa 0,0 l/m W-SW 0,00 h 0 W/m 25,5 km/h (4 Bft)
29.12.2011 23:00 1,9 C 79 % 1018,8 hPa 0,0 l/m SW 0,00 h 0 W/m 28,4 km/h (4 Bft)
30.12.2011 00:00 2,1 C 77 % 1017,4 hPa 0,0 l/m W-SW 0,00 h 0 W/m 29,1 km/h (5 Bft)
30.12.2011 01:00 2,4 C 74 % 1015,6 hPa 0,0 l/m W-SW 0,00 h 0 W/m 42,1 km/h (6 Bft)
30.12.2011 02:00 2,2 C 79 % 1014,2 hPa 0,0 l/m W 0,00 h 0 W/m 47,1 km/h (6 Bft)
30.12.2011 03:00 1,2 C 89 % 1012,8 hPa 0,0 l/m W-SW 0,00 h 0 W/m 42,5 km/h (6 Bft)
30.12.2011 04:00 0,8 C 94 % 1011,6 hPa 0,4 l/m W-SW 0,00 h 0 W/m 40,5 km/h (6 Bft)
30.12.2011 05:00 0,6 C 95 % 1010,8 hPa 0,6 l/m W-SW 0,00 h 0 W/m 29,9 km/h (5 Bft)
30.12.2011 06:00 0,8 C 96 % 1011,2 hPa 0,6 l/m W 0,00 h 0 W/m 25,5 km/h (4 Bft)
30.12.2011 07:00 0,9 C 96 % 1011,8 hPa 0,6 l/m W-SW 0,00 h 0 W/m 16,2 km/h (3 Bft)
30.12.2011 08:00 0,9 C 95 % 1012,8 hPa 0,2 l/m W 0,00 h 8 W/m 18,2 km/h (3 Bft)
30.12.2011 09:00 0,8 C 94 % 1013,6 hPa 0,2 l/m W-NW 0,08 h 35 W/m 28,0 km/h (4 Bft)
30.12.2011 10:00 0,2 C 94 % 1014,9 hPa 0,8 l/m NW 0,00 h 30 W/m 24,0 km/h (4 Bft)
30.12.2011 11:00 0,2 C 96 % 1015,1 hPa 1,0 l/m W-NW 0,33 h 129 W/m 15,8 km/h (3 Bft)
30.12.2011 12:00 1,4 C 92 % 1015,0 hPa 0,0 l/m W-SW 0,83 h 288 W/m 13,8 km/h (3 Bft)
30.12.2011 13:00 1,8 C 86 % 1015,2 hPa 0,0 l/m W-NW 0,08 h 135 W/m 13,2 km/h (3 Bft)
30.12.2011 14:00 1,6 C 85 % 1015,8 hPa 0,0 l/m W-NW 0,08 h 79 W/m 14,2 km/h (3 Bft)
30.12.2011 15:00 1,5 C 85 % 1016,5 hPa 0,0 l/m W 0,17 h 33 W/m 9,0 km/h (2 Bft)
30.12.2011 16:00 1,1 C 86 % 1017,0 hPa 0,0 l/m W 0,00 h 7 W/m 14,0 km/h (3 Bft)
30.12.2011 17:00 0,8 C 87 % 1017,6 hPa 0,0 l/m W 0,00 h 0 W/m 12,0 km/h (2 Bft)
30.12.2011 18:00 0,3 C 88 % 1018,4 hPa 0,0 l/m W-SW 0,00 h 0 W/m 10,5 km/h (2 Bft)
30.12.2011 19:00 -0,1 C 89 % 1019,1 hPa 0,0 l/m W-SW 0,00 h 0 W/m 10,1 km/h (2 Bft)
30.12.2011 20:00 -0,7 C 90 % 1019,5 hPa 0,0 l/m W-SW 0,00 h 0 W/m 11,6 km/h (2 Bft)
30.12.2011 21:00 -0,6 C 89 % 1019,7 hPa 0,0 l/m W-SW 0,00 h 0 W/m 13,7 km/h (3 Bft)
30.12.2011 22:00 -0,9 C 90 % 1019,6 hPa 0,0 l/m SW 0,00 h 0 W/m 11,6 km/h (2 Bft)
30.12.2011 23:00 -1,2 C 93 % 1019,3 hPa 0,0 l/m W-SW 0,00 h 0 W/m 11,4 km/h (2 Bft)
31.12.2011 00:00 -1,4 C 94 % 1018,8 hPa 0,0 l/m SW 0,00 h 0 W/m 8,0 km/h (2 Bft)
31.12.2011 01:00 -1,1 C 95 % 1018,1 hPa 0,0 l/m SW 0,00 h 0 W/m 13,6 km/h (3 Bft)
31.12.2011 02:00 -0,4 C 95 % 1017,8 hPa 0,0 l/m SW 0,00 h 0 W/m 11,8 km/h (2 Bft)
31.12.2011 03:00 -0,2 C 95 % 1017,7 hPa 0,0 l/m W-SW 0,00 h 0 W/m 10,6 km/h (2 Bft)
31.12.2011 04:00 0,4 C 95 % 1017,1 hPa 0,0 l/m SW 0,00 h 0 W/m 12,2 km/h (2 Bft)
31.12.2011 05:00 0,4 C 95 % 1016,3 hPa 0,4 l/m S-SW 0,00 h 0 W/m 12,4 km/h (3 Bft)
31.12.2011 06:00 0,1 C 96 % 1015,7 hPa 0,6 l/m SW 0,00 h 0 W/m 12,8 km/h (3 Bft)
31.12.2011 07:00 -0,2 C 97 % 1015,4 hPa 0,2 l/m S-SW 0,00 h 0 W/m 15,6 km/h (3 Bft)
31.12.2011 08:00 -0,0 C 97 % 1015,4 hPa 0,0 l/m S-SW 0,00 h 6 W/m 13,4 km/h (3 Bft)
31.12.2011 09:00 0,3 C 97 % 1015,7 hPa 0,2 l/m S-SW 0,00 h 10 W/m 10,5 km/h (2 Bft)
31.12.2011 10:00 0,6 C 98 % 1015,8 hPa 0,6 l/m S-SW 0,00 h 33 W/m 7,8 km/h (2 Bft)
31.12.2011 11:00 1,0 C 98 % 1015,4 hPa 1,6 l/m S-SW 0,00 h 63 W/m 9,7 km/h (2 Bft)
31.12.2011 12:00 1,3 C 97 % 1015,0 hPa 0,4 l/m S-SW 0,00 h 66 W/m 10,9 km/h (2 Bft)
31.12.2011 13:00 1,6 C 97 % 1014,8 hPa 1,8 l/m SW 0,00 h 48 W/m 9,4 km/h (2 Bft)
31.12.2011 14:00 1,9 C 97 % 1014,8 hPa 0,6 l/m S-SW 0,00 h 27 W/m 9,8 km/h (2 Bft)
31.12.2011 15:00 1,8 C 98 % 1015,4 hPa 0,2 l/m S-SW 0,00 h 13 W/m 7,9 km/h (2 Bft)
31.12.2011 16:00 2,0 C 98 % 1015,9 hPa 0,0 l/m S-SW 0,00 h 5 W/m 13,2 km/h (3 Bft)
31.12.2011 17:00 2,6 C 98 % 1016,3 hPa 1,2 l/m SW 0,00 h 0 W/m 12,9 km/h (3 Bft)
31.12.2011 18:00 2,9 C 99 % 1016,6 hPa 1,8 l/m SW 0,00 h 0 W/m 12,3 km/h (3 Bft)
31.12.2011 19:00 4,1 C 99 % 1016,8 hPa 0,4 l/m SW 0,00 h 0 W/m 17,0 km/h (3 Bft)
31.12.2011 20:00 4,2 C 99 % 1017,0 hPa 0,6 l/m SW 0,00 h 0 W/m 15,7 km/h (3 Bft)
31.12.2011 21:00 4,3 C 99 % 1017,1 hPa 0,0 l/m SW 0,00 h 0 W/m 15,4 km/h (3 Bft)
31.12.2011 22:00 5,2 C 99 % 1017,3 hPa 0,8 l/m W-SW 0,00 h 0 W/m 17,3 km/h (3 Bft)
31.12.2011 23:00 5,6 C 99 % 1017,2 hPa 0,0 l/m W-SW 0,00 h 0 W/m 18,8 km/h (3 Bft)
01.01.2012 00:00 6,4 C 100 % 1017,4 hPa 0,0 l/m W-SW 0,00 h 0 W/m 20,4 km/h (4 Bft)
01.01.2012 01:00 6,6 C 99 % 1017,7 hPa 0,0 l/m W-SW 0,00 h 0 W/m 20,9 km/h (4 Bft)
01.01.2012 02:00 6,7 C 99 % 1018,1 hPa 0,0 l/m SW 0,00 h 0 W/m 13,8 km/h (3 Bft)
01.01.2012 03:00 6,6 C 99 % 1018,1 hPa 0,2 l/m SW 0,00 h 0 W/m 17,0 km/h (3 Bft)
01.01.2012 04:00 7,0 C 99 % 1018,0 hPa 0,0 l/m SW 0,00 h 0 W/m 22,6 km/h (4 Bft)
01.01.2012 05:00 7,2 C 99 % 1018,0 hPa 0,0 l/m SW 0,00 h 0 W/m 19,8 km/h (4 Bft)
01.01.2012 06:00 6,9 C 99 % 1018,5 hPa 0,0 l/m SW 0,00 h 0 W/m 13,2 km/h (3 Bft)
01.01.2012 07:00 6,9 C 99 % 1018,7 hPa 0,0 l/m SW 0,00 h 0 W/m 14,9 km/h (3 Bft)
01.01.2012 08:00 6,8 C 99 % 1019,0 hPa 0,0 l/m SW 0,00 h 16 W/m 16,9 km/h (3 Bft)
01.01.2012 09:00 6,8 C 99 % 1019,2 hPa 0,0 l/m SW 0,00 h 56 W/m 14,5 km/h (3 Bft)
01.01.2012 10:00 8,2 C 99 % 1019,4 hPa 0,0 l/m W-SW 0,00 h 79 W/m 23,6 km/h (4 Bft)
01.01.2012 11:00 8,8 C 97 % 1019,3 hPa 0,0 l/m SW 0,00 h 110 W/m 22,9 km/h (4 Bft)
01.01.2012 12:00 9,2 C 94 % 1019,0 hPa 0,0 l/m W-SW 0,00 h 102 W/m 19,8 km/h (4 Bft)
01.01.2012 13:00 9,9 C 92 % 1018,4 hPa 0,0 l/m SW 0,00 h 111 W/m 21,9 km/h (4 Bft)
01.01.2012 14:00 9,9 C 91 % 1018,0 hPa 0,0 l/m W-SW 0,00 h 69 W/m 22,0 km/h (4 Bft)
01.01.2012 15:00 9,8 C 90 % 1017,6 hPa 0,0 l/m W-SW 0,00 h 36 W/m 20,2 km/h (4 Bft)
01.01.2012 16:00 8,9 C 92 % 1017,5 hPa 0,0 l/m SW 0,00 h 11 W/m 9,9 km/h (2 Bft)
01.01.2012 17:00 7,6 C 94 % 1017,4 hPa 0,0 l/m SW 0,00 h 0 W/m 9,0 km/h (2 Bft)
01.01.2012 18:00 6,9 C 95 % 1017,2 hPa 0,0 l/m SW 0,00 h 0 W/m 7,1 km/h (2 Bft)
01.01.2012 19:00 7,0 C 97 % 1017,1 hPa 0,0 l/m SW 0,00 h 0 W/m 13,2 km/h (3 Bft)
01.01.2012 20:00 6,7 C 96 % 1016,7 hPa 0,0 l/m SW 0,00 h 0 W/m 14,0 km/h (3 Bft)
01.01.2012 21:00 6,1 C 95 % 1016,5 hPa 0,0 l/m SW 0,00 h 0 W/m 9,5 km/h (2 Bft)
01.01.2012 22:00 5,7 C 96 % 1015,9 hPa 0,0 l/m SW 0,00 h 0 W/m 9,1 km/h (2 Bft)
01.01.2012 23:00 5,3 C 97 % 1015,3 hPa 0,0 l/m SW 0,00 h 0 W/m 7,5 km/h (2 Bft)
Min-Datum _ 26.12.11 26.12.11 30.12.11 - - - - 26.12.11
_ Min-Zeit 08:50 12:35 05:20 - - - - 02:55
Minimum _ -2,2 C 70 % 1010,6 hPa - - - - 0,0 km/h (0 Bft)
Max-Datum _ 01.01.12 28.12.11 26.12.11 31.12.11 - 26.12.11 30.12.11 30.12.11
_ Max-Zeit 14:00 06:40 10:25 13:55 - 10:00 12:20 02:35
Maximum _ 10,2 C 100 % 1039,8 hPa 1,8 l/m - 0,08 h 429 W/m 61,2 km/h
W-SW (7 Bft)
Durchschnitt _ 1,9 C 92 % 1025,6 hPa #16,6 l/m SW #13:30 h 85 W/m 11,5 km/h (2 Bft)